Hovedside
METAR-TAF:

METAR-TAF

Lufthavner :

Simón Bolívar internasjonale lufthavn

Caracas, Venezuela

breddegrad: 10-36N, lengdegrad: 066-59W, høyde over havet: 43 m

Gjeldene værobservasjon

Denne rapporten ble laget for 16 minutter siden, klokken 11:02 UTC
Vind 3 kt fra Vest-sørvest
Temperatur
Trykk 1010 hPa

METAR: SVMI 201102Z AUTO 24003KT NCD ///// Q1010

Tid: 07:18 (11:18 UTC)

Varsel

Denne rapporten ble laget for 7 timer og 18 minutter siden, klokken 04:00 UTC
Varsel gyldig fra 20. klokken 06 UTC til 21. klokken 06 UTC
Vind 6 kt fra Øst-nordøst
Sikt 10 km eller mer
Brutte skyer i en høyde av 1600 ft
Blir
fra 20. klokken 06 UTC til 20. klokken 10 UTC
Vind 5 kt fra Øst
Sikt: 9000 m
Brutte skyer i en høyde av 1600 ft
duskregn

TAF: SVMI 200400Z 2006/2106 07006KT 9999 BKN016 TX32/2019Z TN23/2007Z BECMG 2006/2010 08005KT 9000 DZ BKN016

Værobservasjoner og værvarsel for over 4000 flyplasser (METAR- og TAF-rapporter).

Tilgjengelige stasjoner er representert av de røde og gule prikkene på kartet.

Hold musepekeren over prikken for å se navnet på stasjonen.

Klikk så for å se værobservasjoner og -varsler.

For å forandre kartet kan du klikke på den grønne knappen med svart kryss for å zoome inn, på den grønne knappen med strek for å zoome ut, eller på de grønne pilene for å se tilstøtende kart.


METAR-TAF: